Time;durP1;ratioP1;P1;durP2;ratioP2;P2;SDS_P1;SDS_P2;PMS_P1;PMS_P2;Temp;Humidity;BMP_temperature;BMP_pressure;BME280_temperature;BME280_humidity;BME280_pressure;Samples;Min_cycle;Max_cycle;Signal;HPM_P1;HPM_P2
2021/10/12 00:00:45;;;;;;;29.98;15.77;;;;;;;9.04;60.36;100138.69;5023678;28;20037;-58
2021/10/12 00:03:31;;;;;;;28.40;16.52;;;;;;;9.00;59.03;100147.34;5024554;28;20261;-58
2021/10/12 00:06:18;;;;;;;24.33;14.95;;;;;;;9.06;59.96;100139.53;5022439;28;20030;-59
2021/10/12 00:09:05;;;;;;;30.95;16.70;;;;;;;9.09;59.83;100139.53;5022172;28;20196;-57
2021/10/12 00:11:52;;;;;;;28.65;16.73;;;;;;;9.04;60.08;100143.88;5025003;28;20038;-58
2021/10/12 00:14:38;;;;;;;30.83;16.58;;;;;;;9.10;59.11;100141.22;5036129;28;20065;-59
2021/10/12 00:17:23;;;;;;;26.92;16.30;;;;;;;9.09;60.15;100128.31;5025953;28;20172;-59
2021/10/12 00:20:10;;;;;;;27.05;16.58;;;;;;;9.05;60.78;100140.41;5015150;28;20026;-59
2021/10/12 00:22:55;;;;;;;28.17;16.55;;;;;;;9.02;60.64;100127.53;5011040;28;20112;-60
2021/10/12 00:25:41;;;;;;;29.10;16.15;;;;;;;9.06;59.46;100136.09;5036805;28;20026;-60
2021/10/12 00:28:27;;;;;;;28.85;17.48;;;;;;;9.05;59.63;100130.09;5011010;28;20030;-60
2021/10/12 00:31:13;;;;;;;28.70;16.63;;;;;;;9.07;59.57;100128.34;5024877;28;20033;-60
2021/10/12 00:33:59;;;;;;;35.90;17.10;;;;;;;9.03;60.44;100129.22;5024740;28;20029;-59
2021/10/12 00:36:46;;;;;;;30.48;18.08;;;;;;;8.70;59.06;100073.53;5024029;28;20026;-59
2021/10/12 00:39:31;;;;;;;28.75;16.45;;;;;;;8.98;59.81;100125.84;5024826;28;20038;-59
2021/10/12 00:42:18;;;;;;;30.70;17.48;;;;;;;8.90;60.08;100123.28;5025536;28;20044;-60
2021/10/12 00:45:07;;;;;;;29.13;17.42;;;;;;;8.66;60.46;100077.84;5024113;28;20053;-60
2021/10/12 00:48:02;;;;;;;27.20;17.05;;;;;;;8.89;61.29;100125.91;5022754;28;20215;-60
2021/10/12 00:50:48;;;;;;;33.13;16.75;;;;;;;8.76;60.64;100125.13;5022415;28;20105;-59
2021/10/12 00:53:34;;;;;;;30.63;17.30;;;;;;;8.76;61.06;100119.97;5024720;28;20084;-59
2021/10/12 00:56:20;;;;;;;31.50;18.27;;;;;;;8.86;60.83;100113.00;5022830;28;20022;-59
2021/10/12 00:59:06;;;;;;;31.17;17.92;;;;;;;8.86;60.13;100115.59;5024610;28;20014;-59
2021/10/12 01:01:52;;;;;;;30.95;18.25;;;;;;;8.87;60.66;100113.00;5024957;28;20032;-59
2021/10/12 01:04:39;;;;;;;28.70;17.83;;;;;;;8.86;61.08;100116.44;5022820;28;20044;-59
2021/10/12 01:07:25;;;;;;;30.33;17.50;;;;;;;8.80;60.18;100125.09;5025425;28;20068;-59
2021/10/12 01:10:11;;;;;;;26.70;16.63;;;;;;;8.75;60.52;100107.91;5022506;28;20098;-58
2021/10/12 01:12:57;;;;;;;35.13;17.80;;;;;;;8.76;61.33;100109.63;5023480;28;20250;-59
2021/10/12 01:15:43;;;;;;;31.27;17.63;;;;;;;8.71;61.23;100095.91;5034948;28;20025;-58
2021/10/12 01:18:29;;;;;;;26.40;17.98;;;;;;;8.62;61.40;100108.00;5025424;28;20332;-59
2021/10/12 01:21:14;;;;;;;29.83;19.10;;;;;;;8.71;61.84;100111.41;5024971;28;20026;-58
2021/10/12 01:24:00;;;;;;;30.40;17.40;;;;;;;8.74;61.13;100106.22;5024097;28;20304;-59
2021/10/12 01:26:46;;;;;;;36.63;20.92;;;;;;;8.71;61.58;100095.91;5022448;28;20101;-59
2021/10/12 01:29:32;;;;;;;35.00;20.05;;;;;;;8.68;61.13;100086.47;5023279;28;20033;-59
2021/10/12 01:32:18;;;;;;;31.52;18.75;;;;;;;8.74;61.54;100094.16;5023133;28;20068;-59
2021/10/12 01:35:04;;;;;;;33.00;20.02;;;;;;;8.73;60.98;100094.16;5022494;28;20021;-59
2021/10/12 01:37:50;;;;;;;35.30;20.02;;;;;;;8.70;61.17;100099.34;5022967;28;20030;-59
2021/10/12 01:40:36;;;;;;;36.42;19.88;;;;;;;8.66;62.03;100098.50;5022371;28;20029;-58
2021/10/12 01:43:22;;;;;;;33.95;19.10;;;;;;;8.67;62.07;100100.22;5022473;28;20263;-59
2021/10/12 01:46:09;;;;;;;30.08;18.30;;;;;;;8.69;60.75;100095.06;5034966;28;20353;-60
2021/10/12 01:48:54;;;;;;;33.78;19.42;;;;;;;8.69;62.74;100089.88;5021678;28;20103;-59
2021/10/12 01:51:40;;;;;;;32.00;19.42;;;;;;;8.61;61.85;100100.28;5021548;28;20218;-59
2021/10/12 01:54:26;;;;;;;27.58;19.08;;;;;;;8.56;62.82;100094.28;5021800;28;20030;-60
2021/10/12 01:57:12;;;;;;;32.10;19.23;;;;;;;8.53;62.08;100092.56;5005230;28;20018;-60
2021/10/12 01:59:58;;;;;;;29.52;19.23;;;;;;;8.51;61.85;100091.75;5015919;28;20079;-60
2021/10/12 02:02:45;;;;;;;27.70;18.40;;;;;;;8.52;62.40;100090.00;5022518;28;20036;-60
2021/10/12 02:05:31;;;;;;;35.92;21.10;;;;;;;8.50;62.28;100077.09;5007214;28;20032;-60
2021/10/12 02:08:17;;;;;;;33.60;20.73;;;;;;;8.51;62.64;100081.41;5022316;28;20029;-60
2021/10/12 02:11:03;;;;;;;36.40;20.90;;;;;;;8.49;62.03;100083.13;5021479;28;20056;-60
2021/10/12 02:13:49;;;;;;;35.08;21.58;;;;;;;8.54;62.40;100083.13;5034209;28;20161;-59
2021/10/12 02:16:35;;;;;;;34.72;21.45;;;;;;;8.51;61.38;100078.81;5022940;28;20058;-59
2021/10/12 02:19:21;;;;;;;34.33;21.13;;;;;;;8.51;61.85;100078.81;5021075;28;20080;-59
2021/10/12 02:22:06;;;;;;;32.50;20.02;;;;;;;8.48;62.64;100075.41;5023075;28;20101;-59
2021/10/12 02:24:52;;;;;;;32.35;19.23;;;;;;;8.43;62.61;100072.81;5022341;28;20070;-60
2021/10/12 02:27:39;;;;;;;33.75;20.27;;;;;;;8.34;62.16;100071.16;5021042;28;20021;-60
2021/10/12 02:30:25;;;;;;;41.20;21.60;;;;;;;8.28;63.29;100068.63;5008900;28;20036;-60
2021/10/12 02:33:10;;;;;;;32.45;19.30;;;;;;;7.98;63.92;100067.91;5021039;28;20014;-60
2021/10/12 02:35:56;;;;;;;33.17;20.23;;;;;;;8.05;63.28;100063.56;5022161;28;20071;-60
2021/10/12 02:38:42;;;;;;;29.67;20.38;;;;;;;8.02;63.97;100067.00;5021989;28;20022;-57
2021/10/12 02:41:28;;;;;;;31.00;20.95;;;;;;;7.93;64.52;100064.50;5015425;28;20278;-58
2021/10/12 02:44:13;;;;;;;31.10;20.48;;;;;;;8.16;63.14;100063.53;5014071;28;20077;-58
2021/10/12 02:47:00;;;;;;;33.13;21.48;;;;;;;8.19;63.95;100071.25;5023117;28;20049;-58
2021/10/12 02:49:46;;;;;;;29.88;18.60;;;;;;;8.22;62.65;100066.06;5023195;28;20018;-58
2021/10/12 02:52:32;;;;;;;29.95;20.00;;;;;;;8.23;64.14;100067.78;5020538;28;20026;-58
2021/10/12 02:55:17;;;;;;;32.45;19.73;;;;;;;8.32;63.34;100064.28;5021582;28;20110;-58
2021/10/12 02:58:04;;;;;;;34.60;19.60;;;;;;;8.32;63.97;100064.28;5032760;28;20409;-59
2021/10/12 03:00:50;;;;;;;36.95;20.52;;;;;;;8.13;64.04;100061.81;5034160;28;20040;-58
2021/10/12 03:03:36;;;;;;;28.08;17.75;;;;;;;8.18;63.89;100064.34;5029159;28;20218;-58
2021/10/12 03:06:21;;;;;;;31.45;19.20;;;;;;;8.28;62.99;100055.72;5021637;28;20159;-59
2021/10/12 03:09:08;;;;;;;32.15;19.13;;;;;;;8.29;62.83;100045.38;5022462;28;20040;-58
2021/10/12 03:11:54;;;;;;;32.80;19.00;;;;;;;8.35;64.39;100053.94;5021747;28;20315;-58
2021/10/12 03:14:41;;;;;;;30.67;18.73;;;;;;;8.19;64.11;100037.69;5020577;28;20037;-58
2021/10/12 03:17:27;;;;;;;35.20;21.00;;;;;;;8.28;64.75;100050.56;5021000;28;20029;-58
2021/10/12 03:20:13;;;;;;;35.22;19.95;;;;;;;8.26;64.34;100049.69;5021222;28;20034;-58
2021/10/12 03:22:59;;;;;;;31.65;19.65;;;;;;;8.33;63.41;100050.53;5022327;28;20072;-58
2021/10/12 03:25:44;;;;;;;33.10;18.70;;;;;;;8.27;64.25;100039.38;5022938;28;20022;-60
2021/10/12 03:28:30;;;;;;;32.38;19.65;;;;;;;8.31;63.96;100042.78;5022340;28;20038;-59
2021/10/12 03:31:16;;;;;;;37.67;18.48;;;;;;;8.30;63.42;100031.59;5024195;28;20345;-59
2021/10/12 03:34:02;;;;;;;32.90;17.88;;;;;;;8.32;64.18;100041.91;5021725;28;20319;-59
2021/10/12 03:36:48;;;;;;;26.80;18.15;;;;;;;8.29;64.01;100031.59;5021563;28;20022;-59
2021/10/12 03:39:34;;;;;;;32.72;18.45;;;;;;;8.26;64.36;100022.16;5020270;28;20030;-59
2021/10/12 03:42:20;;;;;;;34.90;19.17;;;;;;;8.17;63.78;100034.28;5003777;28;20042;-59
2021/10/12 03:45:06;;;;;;;29.30;18.60;;;;;;;8.21;64.04;100033.38;5023603;28;20026;-59
2021/10/12 03:47:52;;;;;;;33.13;18.52;;;;;;;8.25;64.01;100037.66;5007454;28;20104;-59
2021/10/12 03:50:38;;;;;;;29.33;17.33;;;;;;;8.26;64.51;100031.63;5008996;28;20030;-63
2021/10/12 03:53:24;;;;;;;37.80;18.55;;;;;;;8.25;63.73;100029.91;5024125;28;20030;-59
2021/10/12 03:56:09;;;;;;;38.50;19.77;;;;;;;8.17;64.72;100029.13;5040727;28;20021;-59
2021/10/12 03:58:55;;;;;;;32.67;19.90;;;;;;;8.09;64.68;100032.63;5025325;28;20044;-59
2021/10/12 04:01:41;;;;;;;33.33;19.30;;;;;;;8.13;64.18;100023.97;5024007;28;20029;-58
2021/10/12 04:04:27;;;;;;;30.27;18.67;;;;;;;8.15;64.71;100028.25;5016926;28;20026;-59
2021/10/12 04:07:13;;;;;;;29.92;18.65;;;;;;;8.16;64.30;100028.25;5024479;28;20018;-58
2021/10/12 04:09:59;;;;;;;31.20;18.88;;;;;;;7.97;64.99;100030.09;5022365;28;20026;-58
2021/10/12 04:12:45;;;;;;;40.92;20.23;;;;;;;8.09;64.91;100029.16;5035598;28;20044;-58
2021/10/12 04:15:31;;;;;;;30.38;18.23;;;;;;;8.03;65.48;100036.94;5024975;28;20080;-59
2021/10/12 04:18:17;;;;;;;37.85;18.27;;;;;;;7.99;65.28;100037.81;5022176;28;20101;-58
2021/10/12 04:21:03;;;;;;;37.53;20.17;;;;;;;7.97;65.39;100024.94;5024743;28;20088;-59
2021/10/12 04:23:49;;;;;;;32.47;18.30;;;;;;;8.03;65.64;100037.78;5022414;28;20022;-58
2021/10/12 04:26:37;;;;;;;31.23;20.25;;;;;;;8.00;65.85;100030.06;5021894;28;20250;-59
2021/10/12 04:29:23;;;;;;;32.75;18.33;;;;;;;8.06;64.50;100044.66;5024236;28;20195;-58
2021/10/12 04:32:10;;;;;;;34.10;19.27;;;;;;;7.87;65.57;100033.59;5023772;28;20033;-58
2021/10/12 04:34:56;;;;;;;30.83;18.33;;;;;;;7.85;65.46;100038.75;5025854;28;20044;-58
2021/10/12 04:37:42;;;;;;;41.67;18.75;;;;;;;7.91;65.14;100041.28;5023147;28;20089;-58
2021/10/12 04:40:29;;;;;;;30.70;17.42;;;;;;;7.92;65.06;100034.41;5022973;28;20026;-59
2021/10/12 04:43:16;;;;;;;35.70;18.60;;;;;;;7.89;65.58;100035.25;5024557;28;20084;-59
2021/10/12 04:46:01;;;;;;;27.80;18.27;;;;;;;7.78;65.56;100035.34;5024895;28;20022;-59
2021/10/12 04:48:47;;;;;;;29.83;18.50;;;;;;;7.84;65.66;100037.03;5023948;28;20017;-59
2021/10/12 04:51:34;;;;;;;31.88;19.30;;;;;;;7.88;65.99;100032.69;5022803;28;20029;-59
2021/10/12 04:54:20;;;;;;;35.78;18.55;;;;;;;7.96;65.44;100030.94;5022813;28;20029;-59
2021/10/12 04:57:05;;;;;;;38.00;18.92;;;;;;;7.73;65.26;100010.44;5023211;28;20030;-59
2021/10/12 04:59:51;;;;;;;36.78;19.98;;;;;;;7.64;66.30;100010.47;5022910;28;20026;-59
2021/10/12 05:02:37;;;;;;;34.22;18.25;;;;;;;7.83;65.94;100029.31;5022118;28;20037;-59
2021/10/12 05:05:23;;;;;;;32.45;19.10;;;;;;;7.75;66.17;100019.00;5023536;28;20056;-59
2021/10/12 05:08:09;;;;;;;32.10;19.17;;;;;;;7.66;66.23;100024.22;5022371;28;20041;-59
2021/10/12 05:10:55;;;;;;;35.88;19.60;;;;;;;7.68;66.63;100018.19;5023673;28;20339;-59
2021/10/12 05:13:41;;;;;;;31.08;17.85;;;;;;;7.74;65.93;100019.91;5024227;28;20026;-59
2021/10/12 05:16:30;;;;;;;32.85;19.48;;;;;;;7.72;66.39;100016.44;5023868;28;20331;-59
2021/10/12 05:19:17;;;;;;;30.42;18.92;;;;;;;7.72;66.33;100012.13;5022620;28;20029;-59
2021/10/12 05:22:03;;;;;;;34.80;19.67;;;;;;;7.67;66.19;100010.47;5020604;28;20033;-59
2021/10/12 05:24:48;;;;;;;32.55;18.63;;;;;;;7.76;66.30;99998.38;5022945;28;20018;-60
2021/10/12 05:27:36;;;;;;;33.35;18.40;;;;;;;8.09;65.48;100017.13;5023670;28;20196;-60
2021/10/12 05:30:24;;;;;;;34.53;19.80;;;;;;;8.11;64.65;100020.53;5021184;28;20030;-59
2021/10/12 05:33:14;;;;;;;33.17;17.67;;;;;;;7.82;64.03;99947.66;5024106;28;20112;-59
2021/10/12 05:36:00;;;;;;;29.13;18.70;;;;;;;8.20;63.86;100011.03;5021238;28;20069;-59
2021/10/12 05:38:47;;;;;;;28.23;18.55;;;;;;;8.27;64.82;100015.31;5008715;28;20017;-58
2021/10/12 05:41:33;;;;;;;26.02;17.58;;;;;;;8.38;63.28;100000.59;5022030;28;20087;-58
2021/10/12 05:44:19;;;;;;;31.08;18.85;;;;;;;8.52;63.08;100015.13;5021901;28;20033;-59
2021/10/12 05:47:05;;;;;;;29.88;18.60;;;;;;;8.51;62.80;100001.38;5022351;28;20025;-59
2021/10/12 05:49:51;;;;;;;31.50;18.80;;;;;;;8.70;63.37;100014.16;5013051;28;20032;-59
2021/10/12 05:52:39;;;;;;;32.33;18.25;;;;;;;8.71;62.74;100014.13;5021203;28;20033;-59
2021/10/12 05:55:34;;;;;;;32.30;19.08;;;;;;;8.76;63.09;100008.91;5021227;28;20030;-58
2021/10/12 06:01:25;;;;;;;33.83;19.38;;;;;;;8.73;62.70;100002.06;5024723;28;20097;-59
2021/10/12 06:04:11;;;;;;;30.30;18.63;;;;;;;8.86;62.15;100013.13;5022506;28;20026;-59
2021/10/12 06:07:01;;;;;;;28.30;18.85;;;;;;;8.87;61.62;100009.69;5020308;28;20033;-59
2021/10/12 06:09:47;;;;;;;32.90;18.50;;;;;;;8.67;62.37;99976.28;5033153;28;20040;-58
2021/10/12 06:12:33;;;;;;;29.45;19.10;;;;;;;8.95;61.51;100001.84;5036277;28;20068;-59
2021/10/12 06:15:19;;;;;;;34.38;19.25;;;;;;;8.91;61.49;100005.38;5024671;28;20099;-59
2021/10/12 06:18:05;;;;;;;35.15;19.35;;;;;;;9.01;61.86;100000.94;5023779;28;20041;-60
2021/10/12 06:20:51;;;;;;;31.05;18.55;;;;;;;9.04;60.76;99998.34;5022736;28;20022;-58
2021/10/12 06:23:37;;;;;;;30.67;19.00;;;;;;;8.94;60.71;100007.91;5033194;28;20249;-59
2021/10/12 06:26:23;;;;;;;34.83;19.85;;;;;;;9.09;60.82;100000.00;5019860;28;20021;-59
2021/10/12 06:29:09;;;;;;;36.97;19.10;;;;;;;9.37;60.61;100019.53;5022194;28;20041;-60
2021/10/12 06:31:55;;;;;;;27.48;17.88;;;;;;;9.66;59.29;100007.13;5021091;28;20121;-59
2021/10/12 06:34:41;;;;;;;26.90;17.70;;;;;;;9.64;60.03;100005.41;5021619;28;20238;-58
2021/10/12 06:37:27;;;;;;;31.23;18.85;;;;;;;10.06;59.23;100004.88;5036955;28;20039;-59
2021/10/12 06:40:13;;;;;;;28.85;18.33;;;;;;;10.25;58.48;100000.28;5020174;28;20030;-59
2021/10/12 06:42:59;;;;;;;32.38;20.08;;;;;;;10.46;57.54;99994.81;5021393;28;20080;-59
2021/10/12 06:45:45;;;;;;;30.58;19.25;;;;;;;10.47;57.79;99990.47;5021558;28;20041;-60
2021/10/12 06:48:32;;;;;;;34.08;19.92;;;;;;;10.40;57.47;99992.28;5019384;28;20034;-59
2021/10/12 06:51:18;;;;;;;31.63;19.30;;;;;;;10.46;57.31;99994.81;5003448;28;20041;-60
2021/10/12 06:54:04;;;;;;;31.38;19.23;;;;;;;10.63;57.50;99991.06;5021699;28;20267;-60
2021/10/12 06:56:50;;;;;;;29.23;18.48;;;;;;;10.73;57.17;99990.06;5022921;28;20033;-60
2021/10/12 06:59:36;;;;;;;30.23;18.80;;;;;;;10.80;56.59;99991.66;5022334;28;20072;-60
2021/10/12 07:02:21;;;;;;;28.65;18.00;;;;;;;10.89;56.09;99988.06;5019775;28;20034;-61
2021/10/12 07:05:08;;;;;;;32.30;19.33;;;;;;;11.11;56.63;99987.66;5006800;28;20033;-60
2021/10/12 07:07:54;;;;;;;27.42;18.85;;;;;;;11.11;55.29;99991.09;5022529;28;20338;-60
2021/10/12 07:10:40;;;;;;;35.92;19.52;;;;;;;10.74;56.16;99976.22;5008301;28;20409;-59
2021/10/12 07:13:29;;;;;;;32.92;20.35;;;;;;;11.15;55.11;99984.97;5020419;28;20032;-60
2021/10/12 07:16:16;;;;;;;33.55;18.92;;;;;;;11.72;53.62;99980.38;5020692;28;20310;-61
2021/10/12 07:19:02;;;;;;;34.72;20.13;;;;;;;11.29;54.32;99981.28;5035852;28;20037;-60
2021/10/12 07:21:48;;;;;;;32.13;19.55;;;;;;;11.34;54.46;99964.75;5022664;28;20040;-61
2021/10/12 07:24:34;;;;;;;31.23;18.98;;;;;;;11.42;53.50;99982.72;5025550;28;20093;-60
2021/10/12 07:27:20;;;;;;;31.52;19.35;;;;;;;11.75;54.01;99985.50;5025778;28;20044;-60
2021/10/12 07:30:06;;;;;;;27.90;18.45;;;;;;;11.62;53.25;99981.47;5025069;28;20299;-61
2021/10/12 07:32:52;;;;;;;33.88;19.20;;;;;;;11.67;53.27;99980.50;5038096;28;20026;-59
2021/10/12 07:35:43;;;;;;;37.78;20.65;;;;;;;11.70;53.67;99980.41;5025479;28;20192;-60
2021/10/12 07:38:29;;;;;;;31.17;19.77;;;;;;;11.81;53.56;99980.16;5017972;28;20066;-60
2021/10/12 07:41:15;;;;;;;39.92;19.02;;;;;;;11.85;52.66;99983.56;5025671;28;20022;-59
2021/10/12 07:44:01;;;;;;;34.53;19.23;;;;;;;11.74;53.06;99979.47;5024320;28;20033;-59
2021/10/12 07:46:50;;;;;;;28.30;17.88;;;;;;;11.96;52.80;99976.44;5024843;28;20030;-60
2021/10/12 07:49:37;;;;;;;28.23;18.65;;;;;;;11.72;52.59;99976.03;5023500;28;20293;-60
2021/10/12 07:52:23;;;;;;;30.98;18.58;;;;;;;11.97;52.48;99970.34;5023539;28;20034;-62
2021/10/12 07:57:57;;;;;;;33.75;18.27;;;;;;;11.89;52.22;99982.63;5026048;28;20041;-61
2021/10/12 08:00:43;;;;;;;27.98;17.25;;;;;;;11.61;51.44;99952.06;5023494;28;20026;-59
2021/10/12 08:03:29;;;;;;;29.73;18.08;;;;;;;12.11;51.72;99975.22;5022949;28;20041;-60
2021/10/12 08:06:15;;;;;;;32.00;16.58;;;;;;;12.31;50.81;99972.13;5022776;28;20053;-59
2021/10/12 08:09:01;;;;;;;28.80;15.13;;;;;;;12.37;48.91;99963.34;5022560;28;20045;-61
2021/10/12 08:11:47;;;;;;;26.40;15.32;;;;;;;12.82;48.60;99962.25;5024067;28;20026;-61
2021/10/12 08:14:38;;;;;;;28.70;15.93;;;;;;;12.82;48.24;99955.28;5026630;28;20349;-61
2021/10/12 08:17:24;;;;;;;25.92;15.27;;;;;;;13.19;47.38;99961.25;5024935;28;20222;-60
2021/10/12 08:20:10;;;;;;;26.73;15.50;;;;;;;13.15;46.09;99952.66;5023617;28;20025;-61
2021/10/12 08:22:57;;;;;;;20.63;13.82;;;;;;;13.26;46.16;99948.03;5023186;28;20218;-59
2021/10/12 08:25:43;;;;;;;24.38;13.93;;;;;;;13.59;46.32;99957.53;5023284;28;20053;-59
2021/10/12 08:28:28;;;;;;;21.52;13.35;;;;;;;13.74;45.12;99938.88;5023015;28;20033;-60
2021/10/12 08:31:15;;;;;;;30.50;14.73;;;;;;;14.32;44.64;99951.81;5020138;28;20104;-60
2021/10/12 08:34:00;;;;;;;29.33;13.98;;;;;;;14.90;42.44;99945.53;5007803;28;20031;-62
2021/10/12 08:36:46;;;;;;;25.33;13.82;;;;;;;15.23;42.37;99941.78;5004780;28;20105;-62
2021/10/12 08:39:33;;;;;;;22.20;14.75;;;;;;;14.89;42.01;99941.22;5025519;28;20049;-60
2021/10/12 08:42:32;;;;;;;33.17;15.25;;;;;;;15.93;42.05;99937.44;5024591;28;20057;-61
2021/10/12 08:45:21;;;;;;;22.40;14.95;;;;;;;16.31;40.28;99890.63;5037314;28;20258;-62
2021/10/12 08:48:07;;;;;;;24.77;15.02;;;;;;;16.47;41.11;99924.78;5024616;28;20144;-61
2021/10/12 08:50:52;;;;;;;24.80;14.70;;;;;;;16.42;39.83;99913.66;5013450;28;20188;-60
2021/10/12 08:53:38;;;;;;;21.88;15.32;;;;;;;16.71;39.85;99915.06;5023383;28;20099;-61
2021/10/12 08:56:24;;;;;;;26.05;14.57;;;;;;;17.07;38.40;99907.41;5021052;28;20029;-62
2021/10/12 08:59:10;;;;;;;50.40;15.77;;;;;;;17.57;39.05;99911.25;5035630;28;20095;-61
2021/10/12 09:02:02;;;;;;;24.90;14.45;;;;;;;17.84;36.81;99858.44;5025152;28;20022;-61
2021/10/12 09:04:48;;;;;;;27.65;12.80;;;;;;;17.30;38.81;99902.03;5022500;28;20033;-61
2021/10/12 09:07:39;;;;;;;25.63;14.60;;;;;;;17.20;37.55;99893.75;5022433;28;20049;-62
2021/10/12 09:10:25;;;;;;;22.00;13.70;;;;;;;17.27;38.75;99900.38;5031981;28;20041;-62
2021/10/12 09:13:12;;;;;;;20.40;13.57;;;;;;;16.83;38.25;99895.34;5022824;28;20032;-63
2021/10/12 09:16:19;;;;;;;19.48;13.32;;;;;;;17.02;38.36;99895.44;5022818;28;20091;-63
2021/10/12 09:19:10;;;;;;;17.48;13.27;;;;;;;16.42;38.48;99895.38;5023049;28;20345;-61
2021/10/12 09:21:57;;;;;;;20.52;12.55;;;;;;;16.45;38.76;99893.50;5022452;28;20324;-59
2021/10/12 09:24:45;;;;;;;19.55;11.63;;;;;;;15.87;38.29;99891.50;5025185;28;20322;-60
2021/10/12 09:27:45;;;;;;;21.27;11.75;;;;;;;15.37;39.01;99884.72;5022701;28;20072;-63
2021/10/12 09:30:35;;;;;;;19.35;10.90;;;;;;;14.98;38.79;99839.19;5016844;28;20034;-64
2021/10/12 09:33:21;;;;;;;15.55;11.05;;;;;;;15.11;39.58;99880.47;5023487;28;20033;-62
2021/10/12 09:36:07;;;;;;;22.27;10.25;;;;;;;15.08;39.76;99888.41;5023459;28;20199;-62
2021/10/12 09:38:53;;;;;;;27.58;11.18;;;;;;;15.07;39.89;99876.28;5022627;28;20192;-61
2021/10/12 09:41:39;;;;;;;20.20;10.23;;;;;;;14.87;40.09;99880.47;5022695;28;20258;-62
2021/10/12 09:44:25;;;;;;;17.75;9.85;;;;;;;14.90;39.97;99872.53;5023979;28;20101;-62
2021/10/12 09:47:13;;;;;;;18.17;10.18;;;;;;;14.64;40.27;99876.91;5017372;28;20025;-60
2021/10/12 09:50:14;;;;;;;17.67;9.95;;;;;;;14.33;41.21;99824.97;5022962;28;20026;-60
2021/10/12 09:52:59;;;;;;;16.95;10.20;;;;;;;14.71;40.70;99868.88;5023446;28;20315;-60
2021/10/12 09:55:45;;;;;;;16.17;9.13;;;;;;;14.76;40.66;99869.56;5022565;28;20353;-60
2021/10/12 09:58:32;;;;;;;13.90;9.40;;;;;;;14.65;40.30;99849.94;5023410;28;20318;-60
2021/10/12 10:01:19;;;;;;;23.70;10.45;;;;;;;14.76;41.15;99856.53;5023244;28;20149;-59
2021/10/12 10:04:06;;;;;;;15.15;9.60;;;;;;;14.63;40.67;99854.34;5022255;28;20214;-65
2021/10/12 10:06:53;;;;;;;14.10;9.40;;;;;;;14.55;40.30;99845.94;5024820;28;20077;-62
2021/10/12 10:09:43;;;;;;;14.60;9.68;;;;;;;14.21;40.57;99797.63;5023212;28;20053;-61
2021/10/12 10:12:31;;;;;;;17.23;8.68;;;;;;;14.38;39.50;99817.00;5013990;28;20029;-61
2021/10/12 10:15:17;;;;;;;14.18;8.68;;;;;;;14.46;40.41;99809.75;5020137;28;20076;-60
2021/10/12 10:18:03;;;;;;;13.07;9.10;;;;;;;14.77;40.59;99834.78;5023091;28;20092;-61
2021/10/12 10:20:51;;;;;;;14.52;8.13;;;;;;;14.65;40.33;99825.63;5024223;28;20027;-61
2021/10/12 10:24:01;;;;;;;14.85;8.45;;;;;;;14.76;40.04;99839.13;5022632;28;20033;-61
2021/10/12 10:26:48;;;;;;;17.48;7.65;;;;;;;14.62;38.76;99834.44;5022869;28;20033;-62
2021/10/12 10:29:37;;;;;;;12.93;7.50;;;;;;;14.42;39.58;99837.72;5023124;28;20034;-60
2021/10/12 10:32:23;;;;;;;13.52;7.55;;;;;;;14.70;40.00;99833.28;5023496;28;20385;-61
2021/10/12 10:35:14;;;;;;;13.15;7.65;;;;;;;14.61;39.59;99835.28;5035039;28;20030;-61
2021/10/12 10:38:34;;;;;;;10.43;7.22;;;;;;;14.64;38.47;99839.59;5024186;28;20250;-60
2021/10/12 10:41:21;;;;;;;12.27;8.13;;;;;;;14.45;39.09;99845.41;5021981;28;20065;-60
2021/10/12 10:44:07;;;;;;;11.48;7.70;;;;;;;14.48;39.51;99831.44;5023979;28;20061;-59
2021/10/12 10:46:53;;;;;;;12.85;7.43;;;;;;;14.55;39.17;99837.25;5023697;28;20384;-60
2021/10/12 10:50:17;;;;;;;12.02;7.85;;;;;;;14.13;39.17;99838.69;5021834;28;20041;-62
2021/10/12 10:53:09;;;;;;;15.68;7.97;;;;;;;14.19;39.57;99781.16;5021767;28;20276;-61
2021/10/12 10:55:59;;;;;;;17.48;8.07;;;;;;;14.27;39.10;99779.16;5022343;28;20381;-61
2021/10/12 10:58:45;;;;;;;16.15;7.93;;;;;;;14.58;39.69;99824.09;5024037;28;20037;-61
2021/10/12 11:01:35;;;;;;;17.88;8.45;;;;;;;14.56;39.78;99811.13;5021526;28;20032;-61
2021/10/12 11:04:40;;;;;;;16.65;8.90;;;;;;;14.47;40.05;99788.88;5024504;28;20078;-62
2021/10/12 11:07:28;;;;;;;13.90;8.77;;;;;;;14.69;40.85;99821.16;5022769;28;20064;-62
2021/10/12 11:10:27;;;;;;;14.43;9.45;;;;;;;14.35;39.74;99802.34;5021552;28;20036;-61
2021/10/12 11:13:26;;;;;;;11.23;8.80;;;;;;;13.80;40.78;99768.63;5021645;28;20026;-61
2021/10/12 11:16:14;;;;;;;14.80;9.07;;;;;;;14.04;41.51;99810.34;5022732;28;20057;-59
2021/10/12 11:19:02;;;;;;;18.38;10.23;;;;;;;13.86;40.44;99764.97;5022218;28;20041;-59
2021/10/12 11:21:55;;;;;;;17.10;8.80;;;;;;;13.72;40.89;99731.56;5028645;28;20032;-60
2021/10/12 11:24:44;;;;;;;18.00;9.48;;;;;;;14.11;40.85;99804.06;5022600;28;20049;-62
2021/10/12 11:27:46;;;;;;;18.52;9.07;;;;;;;14.20;40.60;99824.56;5022725;28;20254;-63
2021/10/12 11:30:34;;;;;;;;;;;;;;;14.05;40.48;99799.91;5023360;28;20049;-63
2021/10/12 11:33:35;;;;;;;14.63;9.15;;;;;;;14.20;40.49;99793.28;5027270;28;19977;-63
2021/10/12 11:36:23;;;;;;;14.90;9.02;;;;;;;14.15;40.70;99800.41;5022886;28;20053;-63
2021/10/12 11:39:09;;;;;;;11.70;9.32;;;;;;;14.13;40.40;99797.84;5022682;28;20030;-62
2021/10/12 11:42:01;;;;;;;15.82;10.02;;;;;;;14.03;41.26;99790.44;5023280;28;20319;-63
2021/10/12 11:44:51;;;;;;;14.82;9.63;;;;;;;14.25;41.35;99788.78;5033936;28;20025;-62
2021/10/12 11:47:40;;;;;;;15.50;9.60;;;;;;;14.31;40.77;99783.34;5020906;28;20030;-61
2021/10/12 11:50:26;;;;;;;12.52;8.70;;;;;;;14.41;41.06;99796.03;5022391;28;20076;-61
2021/10/12 11:53:25;;;;;;;16.05;11.15;;;;;;;14.15;40.34;99738.75;5022461;28;20030;-61
2021/10/12 11:56:13;;;;;;;17.20;10.07;;;;;;;14.49;40.45;99787.06;5034152;28;20026;-62
2021/10/12 11:59:00;;;;;;;14.13;10.25;;;;;;;14.43;40.98;99783.81;5023200;28;20038;-62
2021/10/12 12:01:46;;;;;;;14.60;10.23;;;;;;;14.52;40.95;99782.63;5021698;28;20041;-62
2021/10/12 12:04:35;;;;;;;14.05;9.43;;;;;;;14.50;41.14;99787.91;5021327;28;20026;-61
2021/10/12 12:07:21;;;;;;;14.57;9.85;;;;;;;14.56;41.35;99784.22;5040097;28;20034;-61
2021/10/12 12:10:11;;;;;;;14.93;9.90;;;;;;;14.58;41.04;99777.19;5026828;28;20096;-61
2021/10/12 12:12:57;;;;;;;13.73;10.02;;;;;;;14.39;40.46;99777.03;5025148;28;20088;-62
2021/10/12 12:15:43;;;;;;;14.20;10.60;;;;;;;14.16;40.47;99768.25;5023439;28;20210;-61
2021/10/12 12:18:38;;;;;;;18.20;11.75;;;;;;;14.25;41.00;99777.50;5031537;28;20217;-61
2021/10/12 12:21:33;;;;;;;17.88;10.73;;;;;;;14.28;40.87;99778.25;5031330;28;20033;-61
2021/10/12 12:24:21;;;;;;;16.08;10.32;;;;;;;14.41;41.03;99778.66;5023458;28;20070;-62
2021/10/12 12:27:07;;;;;;;19.88;9.63;;;;;;;14.29;40.83;99772.16;5027700;28;20031;-63
2021/10/12 12:30:10;;;;;;;13.35;9.40;;;;;;;14.33;40.46;99770.28;5034415;28;20025;-62
2021/10/12 12:32:57;;;;;;;13.00;9.10;;;;;;;14.19;41.56;99772.50;5025731;28;20026;-62
2021/10/12 12:35:50;;;;;;;13.98;8.07;;;;;;;14.13;41.37;99766.59;5024569;28;20018;-62
2021/10/12 12:38:37;;;;;;;12.45;8.75;;;;;;;13.93;40.46;99772.50;5025759;28;20053;-62
2021/10/12 12:41:26;;;;;;;18.20;9.52;;;;;;;13.92;40.05;99778.63;5025181;28;20025;-62
2021/10/12 12:44:22;;;;;;;16.27;9.38;;;;;;;13.94;41.10;99769.00;5021953;28;20072;-60
2021/10/12 12:47:13;;;;;;;14.65;9.63;;;;;;;14.04;40.85;99766.06;5025165;28;20038;-62
2021/10/12 12:50:12;;;;;;;16.50;10.00;;;;;;;14.03;40.86;99772.19;5024926;28;20034;-62
2021/10/12 12:53:00;;;;;;;15.23;9.13;;;;;;;14.17;41.52;99772.56;5024088;28;20101;-63
2021/10/12 12:55:46;;;;;;;14.38;9.55;;;;;;;14.07;41.84;99755.56;5022674;28;20029;-62
2021/10/12 12:58:50;;;;;;;18.85;9.40;;;;;;;14.11;40.76;99759.78;5023937;28;20315;-62